ΕΜΥ, Εθνική Μετεωρολογική Υπηρεσία - Δελτία Καιρού, Προγνώσεις

ΑΕΡΟΝΑΥΤΙΛΙΑ

GREEK AIRPORTS CODES

LGIK 181100Z 26015KT 9999 SCT025 21/10 Q1006=

EUROPEAN AIRPORTS CODES

LFPO 181100Z 03008KT 350V070 9999 BKN030 09/03 Q1022 NOSIG=